Time;durP1;ratioP1;P1;durP2;ratioP2;P2;SDS_P1;SDS_P2;PMS_P1;PMS_P2;Temp;Humidity;BMP_temperature;BMP_pressure;BME280_temperature;BME280_humidity;BME280_pressure;Samples;Min_cycle;Max_cycle;Signal;HPM_P1;HPM_P2
2022/12/06 00:01:38;;;;;;;3.93;3.53;;;;;;;5.57;71.36;101610.34;4980667;28;97213;-49
2022/12/06 00:04:07;;;;;;;3.43;3.10;;;;;;;5.57;71.64;101613.06;4974698;27;97382;-48
2022/12/06 00:06:36;;;;;;;4.10;3.43;;;;;;;5.57;71.39;101610.34;4963280;28;97978;-49
2022/12/06 00:09:02;;;;;;;4.00;3.60;;;;;;;5.55;71.53;101609.28;4958769;28;97252;-49
2022/12/06 00:11:31;;;;;;;3.73;3.40;;;;;;;5.55;71.51;101601.84;4956535;28;96787;-49
2022/12/06 00:13:58;;;;;;;3.73;3.40;;;;;;;5.55;71.41;101615.47;4976119;28;97899;-48
2022/12/06 00:16:24;;;;;;;4.37;3.77;;;;;;;5.55;71.51;101601.84;4979323;28;97113;-49
2022/12/06 00:18:50;;;;;;;4.37;3.67;;;;;;;5.55;71.44;101606.53;4981989;28;97153;-48
2022/12/06 00:21:19;;;;;;;4.47;3.63;;;;;;;5.56;71.53;101608.06;4981754;28;97172;-49
2022/12/06 00:23:47;;;;;;;4.07;3.60;;;;;;;5.55;71.47;101607.28;4970832;28;97305;-48
2022/12/06 00:26:13;;;;;;;4.00;3.60;;;;;;;5.56;70.97;101603.38;4962143;28;102725;-48
2022/12/06 00:28:40;;;;;;;5.20;3.80;;;;;;;5.55;71.35;101607.28;4975109;28;97355;-49
2022/12/06 00:31:08;;;;;;;4.13;3.73;;;;;;;5.55;71.33;101606.53;4980795;28;97277;-47
2022/12/06 00:33:35;;;;;;;4.70;3.73;;;;;;;5.54;71.35;101603.03;4978787;28;97493;-47
2022/12/06 00:36:12;;;;;;;3.40;3.07;;;;;;;5.56;71.60;101599.88;4977066;28;96874;-47
2022/12/06 00:38:38;;;;;;;3.57;3.27;;;;;;;5.55;71.47;101607.28;4975145;28;97704;-49
2022/12/06 00:41:06;;;;;;;4.20;3.60;;;;;;;5.55;71.12;101612.75;4979514;28;97100;-50
2022/12/06 00:43:32;;;;;;;4.73;4.00;;;;;;;5.56;71.53;101597.13;4979549;28;98427;-49
2022/12/06 00:45:58;;;;;;;3.57;3.27;;;;;;;5.56;71.73;101594.41;4961257;28;103042;-50
2022/12/06 00:48:23;;;;;;;3.57;3.27;;;;;;;5.56;71.30;101600.66;4970292;28;97211;-49
2022/12/06 00:50:49;;;;;;;3.57;3.27;;;;;;;5.56;71.36;101597.13;4978885;28;97382;-46
2022/12/06 00:53:16;;;;;;;4.50;3.70;;;;;;;5.55;71.45;101595.63;4975661;28;99409;-47
2022/12/06 00:55:42;;;;;;;3.90;3.50;;;;;;;5.54;71.27;101594.84;4975214;28;97571;-46
2022/12/06 00:58:07;;;;;;;3.73;3.43;;;;;;;5.55;71.35;101603.81;4968115;28;98271;-48
2022/12/06 01:00:33;;;;;;;3.57;3.13;;;;;;;5.54;71.48;101600.31;4975605;28;97419;-51
2022/12/06 01:02:58;;;;;;;3.10;2.80;;;;;;;5.53;70.84;101596.03;4970410;28;97047;-49
2022/12/06 01:05:23;;;;;;;3.60;3.30;;;;;;;5.53;71.24;101596.03;4958879;28;97093;-49
2022/12/06 01:07:49;;;;;;;4.20;3.80;;;;;;;5.52;71.22;101596.47;4962118;28;96896;-49
2022/12/06 01:10:14;;;;;;;3.83;3.43;;;;;;;5.53;71.07;101590.59;4960355;28;97105;-48
2022/12/06 01:12:40;;;;;;;3.87;3.47;;;;;;;5.51;71.35;101598.44;4979842;28;97418;-47
2022/12/06 01:15:06;;;;;;;5.17;3.70;;;;;;;5.52;71.50;101585.56;4980264;28;97324;-48
2022/12/06 01:17:31;;;;;;;5.50;3.70;;;;;;;5.50;71.24;101585.25;4981562;28;97261;-48
2022/12/06 01:19:56;;;;;;;3.80;3.40;;;;;;;5.49;71.32;101587.19;4981055;28;96774;-50
2022/12/06 01:22:22;;;;;;;4.13;3.73;;;;;;;5.50;71.37;101585.25;4986534;28;96910;-47
2022/12/06 01:24:47;;;;;;;3.67;3.37;;;;;;;5.48;71.30;101587.63;4975307;28;97244;-48
2022/12/06 01:27:13;;;;;;;6.27;4.80;;;;;;;5.46;71.39;101582.59;4976348;27;97135;-47
2022/12/06 01:29:38;;;;;;;4.97;4.10;;;;;;;5.48;71.26;101582.19;4965501;28;96664;-48
2022/12/06 01:32:04;;;;;;;6.33;4.60;;;;;;;5.46;71.04;101577.13;4977437;28;97324;-46
2022/12/06 01:34:29;;;;;;;4.90;4.20;;;;;;;5.48;71.22;101582.97;4979581;28;97316;-49
2022/12/06 01:36:54;;;;;;;4.57;3.73;;;;;;;5.48;70.92;101590.38;4978363;28;97101;-49
2022/12/06 01:39:20;;;;;;;6.07;4.67;;;;;;;5.46;71.08;101585.31;4981147;28;96968;-47
2022/12/06 01:41:45;;;;;;;4.23;3.70;;;;;;;5.44;71.09;101570.63;4977654;28;96887;-46
2022/12/06 01:44:39;;;;;;;5.37;4.63;;;;;;;5.44;71.18;101565.16;4983130;28;97897;-48
2022/12/06 01:47:09;;;;;;;4.17;3.77;;;;;;;5.44;70.96;101565.91;4968376;28;100404;-47
2022/12/06 01:49:34;;;;;;;4.00;3.60;;;;;;;5.44;71.26;101565.16;4983863;28;96826;-48
2022/12/06 01:52:10;;;;;;;12.13;4.37;;;;;;;5.44;71.14;101576.81;4982023;28;96825;-49
2022/12/06 01:54:36;;;;;;;4.33;3.97;;;;;;;5.41;71.25;101564.06;4956517;28;100468;-51
2022/12/06 01:57:05;;;;;;;5.80;4.00;;;;;;;5.39;70.76;101560.22;4968193;28;97036;-49
2022/12/06 01:59:30;;;;;;;4.77;3.90;;;;;;;5.38;71.15;101566.88;4981922;28;97868;-46
2022/12/06 02:01:55;;;;;;;6.17;4.67;;;;;;;5.37;71.48;101555.22;4984548;28;97214;-50
2022/12/06 02:04:22;;;;;;;5.50;4.40;;;;;;;5.36;70.99;101561.09;4981780;28;97167;-46
2022/12/06 02:06:49;;;;;;;5.93;5.17;;;;;;;5.34;71.15;101564.25;4985272;28;97592;-46
2022/12/06 02:09:16;;;;;;;5.27;4.73;;;;;;;5.32;71.17;101553.78;4983210;28;96892;-48
2022/12/06 02:11:42;;;;;;;9.70;5.17;;;;;;;5.31;71.44;101560.41;4974601;28;97525;-47
2022/12/06 02:14:14;;;;;;;6.60;3.70;;;;;;;5.31;71.29;101543.28;4964697;28;97313;-46
2022/12/06 02:16:44;;;;;;;6.20;4.43;;;;;;;5.31;71.25;101546.00;4980760;28;97221;-50
2022/12/06 02:19:41;;;;;;;5.93;4.70;;;;;;;5.31;71.02;101543.28;4978630;28;97100;-49
2022/12/06 02:22:30;;;;;;;5.03;4.13;;;;;;;5.28;71.32;101534.03;4981387;28;96748;-47
2022/12/06 02:25:14;;;;;;;4.80;3.93;;;;;;;5.26;71.25;101530.94;4984181;28;102508;-47
2022/12/06 02:28:33;;;;;;;5.17;4.37;;;;;;;5.26;71.37;101541.09;4984457;28;101645;-47
2022/12/06 02:31:06;;;;;;;4.10;3.70;;;;;;;5.27;71.51;101534.44;4965521;28;96794;-47
2022/12/06 02:33:45;;;;;;;5.60;4.30;;;;;;;5.28;71.16;101530.53;4977293;28;97175;-50
2022/12/06 02:36:26;;;;;;;5.30;4.23;;;;;;;5.28;71.21;101535.97;4981676;28;100547;-47
2022/12/06 02:39:01;;;;;;;7.90;4.67;;;;;;;5.27;71.54;101529.75;4983280;28;101573;-46
2022/12/06 02:41:34;;;;;;;5.97;4.20;;;;;;;5.27;71.26;101531.72;4955698;28;96842;-47
2022/12/06 02:44:04;;;;;;;6.07;4.40;;;;;;;5.29;71.52;101529.31;4961635;28;96941;-50
2022/12/06 02:46:34;;;;;;;6.80;4.83;;;;;;;5.30;71.30;101530.84;4979085;28;97280;-48
2022/12/06 02:49:02;;;;;;;5.80;4.60;;;;;;;5.32;71.24;101525.72;4977873;28;97036;-48
2022/12/06 02:51:31;;;;;;;7.17;5.70;;;;;;;5.33;71.54;101524.50;4984542;27;97077;-47
2022/12/06 02:53:59;;;;;;;6.60;4.73;;;;;;;5.34;71.24;101515.13;4984968;28;97284;-49
2022/12/06 02:56:26;;;;;;;8.40;5.40;;;;;;;5.34;70.97;101520.59;4963200;28;101821;-47
2022/12/06 02:58:52;;;;;;;7.23;5.30;;;;;;;5.34;71.17;101520.59;4957210;28;97380;-47
2022/12/06 03:01:23;;;;;;;7.07;5.60;;;;;;;5.33;71.26;101519.81;4970826;28;96962;-46
2022/12/06 03:04:05;;;;;;;5.97;5.17;;;;;;;5.30;70.98;101520.72;4981770;28;96941;-48
2022/12/06 03:06:55;;;;;;;11.03;4.90;;;;;;;5.32;71.64;101512.09;4963093;28;101810;-49
2022/12/06 03:09:48;;;;;;;6.70;5.23;;;;;;;5.33;71.04;101519.06;4966781;28;100219;-47
2022/12/06 03:12:34;;;;;;;8.80;4.60;;;;;;;5.33;71.27;101521.78;4978743;28;97139;-47
2022/12/06 03:15:14;;;;;;;6.00;4.90;;;;;;;5.34;71.29;101517.88;4973194;28;97173;-49
2022/12/06 03:17:53;;;;;;;5.00;4.47;;;;;;;5.35;71.24;101508.50;4970624;28;96839;-50
2022/12/06 03:20:30;;;;;;;6.83;5.17;;;;;;;5.37;71.10;101510.78;4980245;28;100352;-46
2022/12/06 03:23:05;;;;;;;7.67;4.20;;;;;;;5.38;71.37;101510.34;4970056;28;98253;-48
2022/12/06 03:25:34;;;;;;;7.20;5.37;;;;;;;5.39;71.51;101516.56;4978048;28;97423;-48
2022/12/06 03:28:01;;;;;;;9.00;5.43;;;;;;;5.40;71.58;101513.41;4977749;28;97341;-48
2022/12/06 03:30:30;;;;;;;9.07;5.20;;;;;;;5.41;70.97;101516.91;4979070;28;97233;-47
2022/12/06 03:32:56;;;;;;;6.27;4.50;;;;;;;5.40;71.22;101518.84;4978448;28;96836;-50
2022/12/06 03:35:29;;;;;;;7.17;4.87;;;;;;;5.42;71.21;101519.19;4979531;28;97529;-48
2022/12/06 03:38:08;;;;;;;9.03;5.57;;;;;;;5.42;70.98;101507.53;4977836;28;97001;-49
2022/12/06 03:40:37;;;;;;;6.10;4.50;;;;;;;5.44;71.21;101519.50;4959304;28;101650;-47
2022/12/06 03:43:03;;;;;;;7.07;4.73;;;;;;;5.42;71.35;101511.00;4962249;28;97099;-49
2022/12/06 03:46:00;;;;;;;7.83;4.40;;;;;;;5.46;71.18;101516.38;4957271;28;97127;-47
2022/12/06 03:48:37;;;;;;;6.10;4.70;;;;;;;5.46;71.08;101514.38;4981520;28;101928;-46
2022/12/06 03:51:06;;;;;;;8.90;4.70;;;;;;;5.47;71.49;101512.41;4977886;28;97201;-47
2022/12/06 03:53:32;;;;;;;6.87;4.57;;;;;;;5.47;71.59;101502.28;4979890;28;97637;-47
2022/12/06 03:55:58;;;;;;;7.77;4.43;;;;;;;5.47;71.08;101496.81;4978891;28;97360;-49
2022/12/06 03:58:24;;;;;;;5.83;4.80;;;;;;;5.49;71.57;101499.09;4980428;28;96798;-47
2022/12/06 04:00:50;;;;;;;6.73;4.53;;;;;;;5.49;71.35;101490.91;4984926;28;99640;-50
2022/12/06 04:03:15;;;;;;;5.40;4.27;;;;;;;5.49;71.40;101491.69;4977974;28;97329;-47
2022/12/06 04:05:41;;;;;;;6.20;4.80;;;;;;;5.51;71.46;101485.78;4970500;28;97412;-51
2022/12/06 04:08:06;;;;;;;9.90;5.17;;;;;;;5.50;71.18;101492.47;4979281;28;97046;-48
2022/12/06 04:10:31;;;;;;;6.60;4.57;;;;;;;5.51;71.70;101491.25;4980228;28;97100;-47
2022/12/06 04:12:59;;;;;;;5.67;4.30;;;;;;;5.51;71.16;101492.00;4976991;28;97367;-47
2022/12/06 04:15:27;;;;;;;7.20;4.50;;;;;;;5.52;71.40;101492.78;4983001;28;97343;-49
2022/12/06 04:23:27;;;;;;;5.30;4.50;;;;;;;5.55;71.41;101486.47;4953684;28;96827;-51
2022/12/06 04:25:53;;;;;;;6.63;4.80;;;;;;;5.54;71.32;101482.97;4955611;28;97392;-49
2022/12/06 04:39:15;;;;;;;6.73;4.43;;;;;;;5.56;71.11;101477.81;4976379;28;97090;-47
2022/12/06 04:44:24;;;;;;;5.70;4.20;;;;;;;5.54;71.15;101474.78;4958012;28;97176;-46
2022/12/06 04:46:50;;;;;;;5.57;4.30;;;;;;;5.59;71.13;101468.75;4957823;28;97158;-49
2022/12/06 04:49:15;;;;;;;5.50;4.47;;;;;;;5.60;71.27;101470.28;4965503;28;97563;-48
2022/12/06 04:51:41;;;;;;;6.20;4.50;;;;;;;5.59;71.47;101471.47;4982635;28;97927;-47
2022/12/06 04:54:06;;;;;;;5.67;4.17;;;;;;;5.60;71.42;101472.25;4984705;28;97102;-49
2022/12/06 04:56:32;;;;;;;5.67;4.73;;;;;;;5.62;71.40;101476.06;4985037;28;97110;-46
2022/12/06 04:58:57;;;;;;;7.10;4.50;;;;;;;5.63;71.07;101463.97;4981099;28;98171;-46
2022/12/06 05:01:23;;;;;;;7.83;4.67;;;;;;;5.64;71.59;101464.69;4979944;28;97859;-48
2022/12/06 05:03:48;;;;;;;7.10;4.60;;;;;;;5.64;71.29;101462.75;4968269;28;97302;-48
2022/12/06 05:06:13;;;;;;;6.13;4.03;;;;;;;5.63;71.32;101469.44;4979371;28;97153;-47
2022/12/06 05:08:39;;;;;;;5.97;4.10;;;;;;;5.64;71.39;101462.75;4980507;28;97057;-46
2022/12/06 05:11:04;;;;;;;5.90;4.47;;;;;;;5.65;71.09;101458.06;4982743;28;97062;-47
2022/12/06 05:13:30;;;;;;;6.13;4.00;;;;;;;5.65;71.38;101456.09;4979404;28;97501;-51
2022/12/06 05:16:01;;;;;;;8.23;4.77;;;;;;;5.69;71.33;101458.69;4978096;28;97278;-47
2022/12/06 05:18:27;;;;;;;5.67;4.20;;;;;;;5.69;71.29;101453.25;4966921;28;101844;-46
2022/12/06 05:21:05;;;;;;;7.80;4.33;;;;;;;5.71;71.43;101450.84;4972731;28;96861;-48
2022/12/06 05:23:31;;;;;;;8.10;4.37;;;;;;;5.72;71.42;101453.13;4978989;28;97076;-46
2022/12/06 05:26:02;;;;;;;8.80;4.87;;;;;;;5.73;71.51;101454.66;4984070;28;96695;-47
2022/12/06 05:28:28;;;;;;;5.97;4.00;;;;;;;5.74;71.59;101450.75;4981529;28;96827;-48
2022/12/06 05:30:53;;;;;;;6.87;4.83;;;;;;;5.74;71.36;101439.81;4984448;28;97197;-47
2022/12/06 05:33:19;;;;;;;7.07;5.07;;;;;;;5.76;71.48;101453.03;4982545;28;97078;-46
2022/12/06 05:35:44;;;;;;;5.50;4.27;;;;;;;5.77;71.48;101443.63;4980242;28;97203;-47
2022/12/06 05:38:09;;;;;;;5.97;4.27;;;;;;;5.78;71.20;101445.94;4979680;28;97695;-46
2022/12/06 05:40:35;;;;;;;5.47;4.00;;;;;;;5.79;71.26;101446.66;4978585;28;97231;-49
2022/12/06 05:43:00;;;;;;;6.73;4.13;;;;;;;5.80;71.21;101443.53;4985292;28;97335;-48
2022/12/06 05:45:25;;;;;;;6.53;4.57;;;;;;;5.81;71.46;101441.56;4985284;28;96945;-49
2022/12/06 05:47:51;;;;;;;4.97;4.20;;;;;;;5.82;71.17;101445.78;4985777;28;101783;-46
2022/12/06 05:50:16;;;;;;;6.50;4.40;;;;;;;5.82;71.55;101438.38;4983539;28;97352;-46
2022/12/06 05:52:42;;;;;;;7.83;4.67;;;;;;;5.83;71.57;101445.34;4982039;28;97097;-48
2022/12/06 05:55:07;;;;;;;6.63;4.93;;;;;;;5.84;71.19;101436.00;4965547;28;96868;-47
2022/12/06 05:57:33;;;;;;;5.53;4.40;;;;;;;5.84;71.35;101436.00;4964705;28;97570;-51
2022/12/06 05:59:58;;;;;;;8.27;4.90;;;;;;;5.86;71.55;101435.53;4964732;28;97142;-48
2022/12/06 06:02:23;;;;;;;8.77;5.10;;;;;;;5.87;71.49;101432.41;4962312;28;96772;-46
2022/12/06 06:04:49;;;;;;;8.80;5.17;;;;;;;5.88;71.41;101428.44;4972520;28;97127;-49
2022/12/06 06:07:14;;;;;;;6.90;4.63;;;;;;;5.91;71.18;101435.78;4986634;28;97422;-46
2022/12/06 06:09:39;;;;;;;6.70;4.80;;;;;;;5.92;71.18;101436.50;4960380;28;101630;-48
2022/12/06 06:12:05;;;;;;;5.17;4.30;;;;;;;5.92;71.58;101440.00;4980633;28;97134;-48
2022/12/06 06:14:30;;;;;;;7.90;5.00;;;;;;;5.94;71.45;101436.88;4984197;28;97058;-47
2022/12/06 06:16:56;;;;;;;7.33;4.83;;;;;;;5.97;71.39;101435.97;4983920;28;97281;-50
2022/12/06 06:19:23;;;;;;;5.80;4.77;;;;;;;5.97;71.55;101435.97;4980703;28;96696;-46
2022/12/06 06:21:48;;;;;;;9.00;4.87;;;;;;;5.99;71.25;101439.78;4981672;28;96700;-50
2022/12/06 06:24:14;;;;;;;7.83;4.73;;;;;;;6.00;71.38;101440.56;4984688;28;97231;-47
2022/12/06 06:26:39;;;;;;;12.90;5.20;;;;;;;6.01;71.05;101440.09;4983863;28;97401;-47
2022/12/06 06:29:05;;;;;;;8.83;5.30;;;;;;;6.01;71.45;101451.03;4978774;28;97174;-50
2022/12/06 06:31:30;;;;;;;6.37;5.10;;;;;;;6.03;71.31;101436.91;4981209;28;98187;-46
2022/12/06 06:33:55;;;;;;;6.87;4.73;;;;;;;6.04;71.65;101447.44;4978614;28;97168;-47
2022/12/06 06:36:21;;;;;;;9.60;4.40;;;;;;;6.06;71.06;101446.97;4982275;28;97491;-51
2022/12/06 06:38:46;;;;;;;11.47;5.17;;;;;;;6.07;71.35;101446.53;4986903;28;97195;-47
2022/12/06 06:41:11;;;;;;;9.70;5.20;;;;;;;6.10;71.17;101452.31;4982772;28;96977;-47
2022/12/06 06:43:37;;;;;;;10.30;5.53;;;;;;;6.10;71.33;101444.88;4980328;28;96853;-48
2022/12/06 06:46:07;;;;;;;8.30;5.20;;;;;;;6.12;71.65;101444.44;4974504;28;97715;-49
2022/12/06 06:48:37;;;;;;;5.67;4.50;;;;;;;6.14;71.65;101452.97;4979802;28;97249;-48
2022/12/06 06:51:09;;;;;;;7.27;5.10;;;;;;;6.15;71.48;101449.78;4985054;28;96775;-50
2022/12/06 06:53:35;;;;;;;11.63;5.67;;;;;;;6.17;71.43;101450.13;4984911;28;96663;-48
2022/12/06 06:56:01;;;;;;;10.33;5.30;;;;;;;6.18;71.56;101448.16;4984486;28;98453;-47
2022/12/06 06:58:27;;;;;;;8.60;5.50;;;;;;;6.19;71.34;101455.91;4987139;28;97204;-48
2022/12/06 07:00:54;;;;;;;8.93;5.13;;;;;;;6.20;71.38;101456.66;4976405;28;97818;-47
2022/12/06 07:03:20;;;;;;;11.07;6.80;;;;;;;6.23;71.57;101458.50;4979098;28;97343;-47
2022/12/06 07:05:57;;;;;;;9.40;5.40;;;;;;;6.25;71.86;101450.63;4977491;28;97481;-49
2022/12/06 07:08:23;;;;;;;8.23;5.60;;;;;;;6.25;71.59;101461.53;4978356;28;97484;-48
2022/12/06 07:10:48;;;;;;;10.53;6.30;;;;;;;6.28;71.90;101455.97;4982181;28;96769;-47
2022/12/06 07:13:19;;;;;;;11.00;6.63;;;;;;;6.32;71.85;101459.34;4979558;28;97063;-45
2022/12/06 07:15:45;;;;;;;8.83;6.00;;;;;;;6.33;71.67;101462.84;4975632;28;96838;-50
2022/12/06 07:18:10;;;;;;;7.43;4.90;;;;;;;6.34;71.79;101461.63;4953458;28;97347;-46
2022/12/06 07:20:35;;;;;;;9.07;6.03;;;;;;;6.35;71.35;101465.91;4957052;28;97967;-48
2022/12/06 07:23:01;;;;;;;8.50;6.43;;;;;;;6.35;71.71;101469.41;4968511;28;96631;-49
2022/12/06 07:25:27;;;;;;;9.30;6.27;;;;;;;6.36;71.40;101468.19;4960722;28;97334;-48
2022/12/06 07:27:52;;;;;;;9.43;5.97;;;;;;;6.39;71.78;101472.00;4961017;28;96743;-49
2022/12/06 07:30:17;;;;;;;13.70;7.80;;;;;;;6.41;71.51;101470.34;4963907;28;97669;-47
2022/12/06 07:32:43;;;;;;;11.97;5.70;;;;;;;6.42;71.84;101471.88;4962223;28;96907;-47
2022/12/06 07:35:08;;;;;;;7.37;5.53;;;;;;;6.44;71.80;101471.44;4980264;28;97319;-48
2022/12/06 07:37:34;;;;;;;9.43;6.43;;;;;;;6.47;71.85;101470.53;4978817;28;96712;-47
2022/12/06 07:39:59;;;;;;;12.37;6.80;;;;;;;6.50;71.87;101480.59;4978716;28;98606;-45
2022/12/06 07:45:11;;;;;;;11.23;7.47;;;;;;;6.54;71.77;101476.53;4978626;28;102054;-47
2022/12/06 07:47:39;;;;;;;11.53;6.17;;;;;;;6.56;71.80;101479.59;4979641;28;100163;-46
2022/12/06 07:50:08;;;;;;;10.40;6.77;;;;;;;6.58;71.97;101485.38;4980143;28;97083;-47
2022/12/06 07:52:34;;;;;;;12.33;7.50;;;;;;;6.60;71.64;101479.44;4980539;28;97584;-45
2022/12/06 07:55:01;;;;;;;11.43;6.63;;;;;;;6.61;72.00;101494.66;4981658;28;97383;-46
2022/12/06 07:57:26;;;;;;;17.67;6.43;;;;;;;6.65;72.07;101481.63;4979509;28;97201;-45
2022/12/06 07:59:52;;;;;;;15.10;7.20;;;;;;;6.65;71.83;101487.84;4983072;28;96689;-46
2022/12/06 08:02:20;;;;;;;14.87;6.67;;;;;;;6.66;71.94;101480.44;4958116;28;96989;-46
2022/12/06 08:04:46;;;;;;;9.80;6.10;;;;;;;6.69;71.76;101495.94;4959261;28;97451;-46
2022/12/06 08:07:11;;;;;;;11.37;6.30;;;;;;;6.70;72.03;101481.06;4959228;28;97157;-48
2022/12/06 08:09:37;;;;;;;9.70;5.67;;;;;;;6.74;71.97;101492.63;4960661;28;97227;-47
2022/12/06 08:12:02;;;;;;;9.80;6.50;;;;;;;6.74;72.05;101487.94;4958860;28;96925;-46
2022/12/06 08:14:28;;;;;;;16.60;7.30;;;;;;;6.77;72.27;101487.03;4976879;28;101233;-45
2022/12/06 08:16:53;;;;;;;13.00;6.03;;;;;;;6.79;72.06;101479.13;4979070;28;97238;-47
2022/12/06 08:19:18;;;;;;;10.93;6.63;;;;;;;6.80;72.23;101480.69;4982171;28;97252;-47
2022/12/06 08:21:44;;;;;;;12.17;6.20;;;;;;;6.82;71.97;101489.19;4980924;28;97144;-47
2022/12/06 08:24:10;;;;;;;12.87;7.07;;;;;;;6.84;72.11;101488.00;4983328;28;96691;-47
2022/12/06 08:26:36;;;;;;;17.97;6.77;;;;;;;6.85;72.25;101498.47;4984495;28;97632;-46
2022/12/06 08:29:02;;;;;;;8.47;5.30;;;;;;;6.87;72.52;101485.13;4965609;28;97348;-46
2022/12/06 08:31:29;;;;;;;11.47;5.70;;;;;;;6.88;72.49;101489.38;4978992;28;97223;-47
2022/12/06 08:33:55;;;;;;;9.50;4.93;;;;;;;6.88;72.22;101497.56;4982602;28;97023;-45
2022/12/06 08:36:22;;;;;;;10.80;5.67;;;;;;;6.91;72.38;101493.97;4982845;28;97268;-48
2022/12/06 08:38:48;;;;;;;13.97;6.73;;;;;;;6.92;72.26;101486.53;4987605;28;97095;-47
2022/12/06 08:43:59;;;;;;;11.40;5.23;;;;;;;6.95;72.60;101488.34;4964220;28;101449;-45
2022/12/06 08:46:25;;;;;;;10.17;6.20;;;;;;;6.99;72.42;101491.75;4977474;28;96761;-47
2022/12/06 08:48:51;;;;;;;10.17;5.50;;;;;;;7.00;72.34;101488.56;4980993;28;96885;-46
2022/12/06 08:51:17;;;;;;;10.00;5.57;;;;;;;7.00;72.52;101494.03;4984376;28;97366;-49
2022/12/06 08:53:42;;;;;;;10.90;5.17;;;;;;;7.00;72.58;101493.25;4979968;28;97277;-47
2022/12/06 08:56:08;;;;;;;10.47;4.60;;;;;;;7.00;72.48;101496.75;4984620;28;97183;-49
2022/12/06 08:58:33;;;;;;;8.67;5.27;;;;;;;7.03;72.56;101487.66;4981067;28;97087;-48
2022/12/06 09:00:59;;;;;;;9.60;5.07;;;;;;;7.04;72.44;101491.91;4978393;28;97022;-47
2022/12/06 09:03:24;;;;;;;9.83;5.27;;;;;;;7.04;72.68;101483.69;4980662;28;97320;-47
2022/12/06 09:05:50;;;;;;;9.87;5.23;;;;;;;7.08;72.48;101494.50;4980624;28;97369;-49
2022/12/06 09:08:15;;;;;;;8.67;4.83;;;;;;;7.09;72.55;101488.59;4983391;28;97165;-46
2022/12/06 09:10:42;;;;;;;8.67;5.43;;;;;;;7.11;72.58;101494.41;4984328;28;97419;-47
2022/12/06 09:13:07;;;;;;;12.90;5.60;;;;;;;7.15;72.54;101495.03;4983366;28;97206;-48
2022/12/06 09:15:32;;;;;;;10.93;4.73;;;;;;;7.20;72.57;101496.41;4983817;28;97737;-50
2022/12/06 09:17:58;;;;;;;9.90;5.13;;;;;;;7.22;72.66;101494.75;4984270;28;96599;-47
2022/12/06 09:20:23;;;;;;;9.47;5.40;;;;;;;7.24;72.45;101503.28;4984085;28;96974;-48
2022/12/06 09:22:48;;;;;;;10.73;5.90;;;;;;;7.23;72.37;101499.00;4984705;28;97290;-47
2022/12/06 09:25:14;;;;;;;11.17;5.90;;;;;;;7.23;72.55;101511.94;4980920;28;97276;-46
2022/12/06 09:27:39;;;;;;;10.00;6.33;;;;;;;7.25;72.78;101506.78;4980905;28;97003;-49
2022/12/06 09:30:06;;;;;;;8.40;5.40;;;;;;;7.25;72.57;101501.31;4982916;28;96995;-49
2022/12/06 09:32:31;;;;;;;13.30;6.73;;;;;;;7.28;72.51;101505.88;4980688;28;97180;-47
2022/12/06 09:34:56;;;;;;;10.33;5.50;;;;;;;7.29;72.77;101504.69;4978983;28;97001;-47
2022/12/06 09:37:22;;;;;;;11.97;6.10;;;;;;;7.30;72.55;101503.44;4980224;28;96663;-47
2022/12/06 09:39:55;;;;;;;12.50;7.07;;;;;;;7.32;72.35;101501.78;4978389;28;97339;-46
2022/12/06 09:42:45;;;;;;;10.60;6.50;;;;;;;7.30;72.71;101503.44;4979465;28;100505;-50
2022/12/06 09:45:25;;;;;;;9.47;6.13;;;;;;;7.33;72.71;101499.81;4961876;28;101530;-48
2022/12/06 09:48:09;;;;;;;13.60;7.90;;;;;;;7.35;72.80;101498.16;4966868;28;96841;-47
2022/12/06 09:51:02;;;;;;;11.30;7.37;;;;;;;7.38;72.54;101502.00;4962121;28;97103;-48
2022/12/06 09:54:16;;;;;;;13.47;7.07;;;;;;;7.38;72.83;101496.50;4968742;28;100528;-47
2022/12/06 09:56:50;;;;;;;8.77;6.30;;;;;;;7.40;72.53;101499.56;4977287;28;101610;-49
2022/12/06 09:59:23;;;;;;;8.77;5.17;;;;;;;7.41;72.64;101501.84;4983762;28;97614;-48
2022/12/06 10:02:01;;;;;;;11.63;7.10;;;;;;;7.44;72.56;101500.19;4981020;28;97112;-50
2022/12/06 10:04:54;;;;;;;9.00;6.43;;;;;;;7.47;72.70;101502.00;4954056;28;97249;-50
2022/12/06 10:07:25;;;;;;;9.37;6.10;;;;;;;7.45;72.75;101497.00;4968634;28;100072;-47
2022/12/06 10:10:17;;;;;;;9.17;6.20;;;;;;;7.48;72.54;101503.53;4982735;28;97027;-48
2022/12/06 10:12:58;;;;;;;9.17;6.00;;;;;;;7.48;72.73;101500.81;4978693;28;96970;-47
2022/12/06 10:15:35;;;;;;;9.60;6.03;;;;;;;7.51;72.69;101505.38;4977691;28;101696;-48
2022/12/06 10:18:32;;;;;;;9.80;6.30;;;;;;;7.50;72.56;101504.63;4978630;28;97546;-47
2022/12/06 10:21:09;;;;;;;13.03;7.40;;;;;;;7.52;72.58;101504.16;4971912;28;96926;-47
2022/12/06 10:23:47;;;;;;;7.40;5.33;;;;;;;7.54;72.46;101504.47;4959913;28;97176;-47
2022/12/06 10:26:18;;;;;;;8.47;5.57;;;;;;;7.56;72.53;101502.81;4972429;28;97328;-50
2022/12/06 10:29:09;;;;;;;9.13;6.20;;;;;;;7.59;72.42;101501.16;4978014;28;97360;-47
2022/12/06 10:31:56;;;;;;;9.77;6.40;;;;;;;7.60;72.41;101497.19;4964401;28;97181;-49
2022/12/06 10:34:22;;;;;;;8.30;6.03;;;;;;;7.57;72.53;101493.41;4976781;28;96884;-46
2022/12/06 10:37:05;;;;;;;8.03;5.90;;;;;;;7.61;72.58;101493.25;4981403;28;97364;-47
2022/12/06 10:39:48;;;;;;;7.30;5.20;;;;;;;7.63;72.26;101490.06;4981669;28;96834;-47
2022/12/06 10:42:25;;;;;;;7.23;5.40;;;;;;;7.63;72.48;101484.56;4968088;28;96784;-50
2022/12/06 10:48:38;;;;;;;8.47;5.73;;;;;;;7.64;72.56;101492.38;4960499;28;101572;-47
2022/12/06 10:51:10;;;;;;;11.77;6.17;;;;;;;7.68;72.32;101492.22;4958186;28;97566;-48
2022/12/06 10:53:51;;;;;;;10.37;6.27;;;;;;;7.70;72.26;101490.53;4961253;28;96625;-49
2022/12/06 10:56:22;;;;;;;8.73;5.50;;;;;;;7.71;72.24;101485.84;4963599;28;96897;-47
2022/12/06 10:58:55;;;;;;;8.40;5.87;;;;;;;7.68;72.29;101482.03;4955249;28;97804;-50
2022/12/06 11:01:27;;;;;;;9.80;5.30;;;;;;;7.69;72.26;101480.06;4957913;28;97270;-47
2022/12/06 11:04:03;;;;;;;7.23;5.63;;;;;;;7.64;72.06;101483.38;4966338;28;97054;-47
2022/12/06 11:06:36;;;;;;;7.70;4.47;;;;;;;7.62;72.41;101470.16;4955101;28;97183;-52
2022/12/06 11:09:31;;;;;;;9.23;5.57;;;;;;;7.64;72.33;101473.19;4959355;28;101076;-50
2022/12/06 11:11:57;;;;;;;8.47;5.50;;;;;;;7.65;72.41;101474.69;4959405;28;103062;-47
2022/12/06 11:14:29;;;;;;;8.00;5.53;;;;;;;7.71;72.31;101480.38;4966989;28;97212;-49
2022/12/06 11:17:08;;;;;;;11.17;6.07;;;;;;;7.73;72.48;101480.66;4958621;28;97399;-49
2022/12/06 11:19:39;;;;;;;8.67;5.47;;;;;;;7.73;72.19;101481.44;4956743;28;98072;-49
2022/12/06 11:22:13;;;;;;;7.90;5.10;;;;;;;7.74;72.21;101476.69;4961185;28;97255;-48
2022/12/06 11:25:08;;;;;;;9.37;5.57;;;;;;;7.74;72.23;101473.97;4957594;28;97429;-50
2022/12/06 11:27:41;;;;;;;11.70;5.80;;;;;;;7.74;72.55;101473.97;4956865;28;96872;-48
2022/12/06 11:30:16;;;;;;;9.43;5.80;;;;;;;7.78;72.26;101480.06;4957760;28;96929;-51
2022/12/06 11:32:43;;;;;;;9.93;5.60;;;;;;;7.81;72.46;101476.44;4957260;28;97133;-49
2022/12/06 11:35:15;;;;;;;8.90;6.10;;;;;;;7.86;72.57;101465.66;4956101;28;96854;-47
2022/12/06 11:37:42;;;;;;;8.80;5.67;;;;;;;7.86;72.27;101465.66;4958891;28;97319;-48
2022/12/06 11:40:41;;;;;;;8.03;5.63;;;;;;;7.88;71.85;101468.69;4953942;28;97841;-52
2022/12/06 11:43:12;;;;;;;8.27;5.10;;;;;;;7.86;72.23;101465.66;4953339;28;100203;-48
2022/12/06 11:45:41;;;;;;;9.50;6.30;;;;;;;7.87;72.46;101469.91;4959827;28;97175;-47
2022/12/06 11:48:14;;;;;;;7.37;5.10;;;;;;;7.90;71.87;101462.75;4975129;28;96779;-47
2022/12/06 11:50:41;;;;;;;6.57;5.30;;;;;;;7.90;72.42;101462.75;4975215;28;101585;-51
2022/12/06 11:53:24;;;;;;;12.00;5.80;;;;;;;7.86;71.80;101453.91;4974173;28;97184;-51
2022/12/06 11:55:53;;;;;;;11.27;7.50;;;;;;;7.76;72.42;101455.09;4978802;28;97190;-47
2022/12/06 11:58:40;;;;;;;14.50;9.40;;;;;;;7.81;72.51;101462.72;4981313;28;96873;-49
2022/12/06 12:01:09;;;;;;;14.57;8.77;;;;;;;7.83;72.43;101455.59;4979229;28;101706;-51
2022/12/06 12:03:38;;;;;;;12.57;7.60;;;;;;;7.88;72.32;101455.00;4977143;28;97719;-48
2022/12/06 12:06:16;;;;;;;10.70;7.70;;;;;;;7.91;72.19;101445.09;4975458;28;97274;-47
2022/12/06 12:08:51;;;;;;;10.80;6.93;;;;;;;7.95;72.30;101451.19;4974171;28;97546;-47
2022/12/06 12:11:20;;;;;;;11.47;7.67;;;;;;;7.95;72.01;101451.19;4973456;28;97543;-47
2022/12/06 12:13:56;;;;;;;11.87;7.37;;;;;;;7.97;72.27;101446.03;4956591;28;96951;-49